sensor_id;sensor_type;location;lat;lon;timestamp;pressure;altitude;pressure_sealevel;temperature;humidity
61870;BME280;47810;42.264;23.826;2022-12-20T00:01:46;95661.19;;;-1.17;77.11
61870;BME280;47810;42.264;23.826;2022-12-20T00:04:12;95659.38;;;-1.27;77.06
61870;BME280;47810;42.264;23.826;2022-12-20T00:06:38;95670.50;;;-1.37;77.80
61870;BME280;47810;42.264;23.826;2022-12-20T00:09:04;95676.50;;;-1.41;77.72
61870;BME280;47810;42.264;23.826;2022-12-20T00:11:31;95667.94;;;-1.34;77.56
61870;BME280;47810;42.264;23.826;2022-12-20T00:13:56;95673.97;;;-1.36;77.92
61870;BME280;47810;42.264;23.826;2022-12-20T00:16:23;95668.03;;;-1.25;77.51
61870;BME280;47810;42.264;23.826;2022-12-20T00:18:50;95671.34;;;-1.41;78.55
61870;BME280;47810;42.264;23.826;2022-12-20T00:21:16;95670.56;;;-1.29;77.47
61870;BME280;47810;42.264;23.826;2022-12-20T00:23:41;95674.75;;;-1.42;77.83
61870;BME280;47810;42.264;23.826;2022-12-20T00:26:08;95673.97;;;-1.36;77.13
61870;BME280;47810;42.264;23.826;2022-12-20T00:28:34;95677.28;;;-1.48;78.09
61870;BME280;47810;42.264;23.826;2022-12-20T00:31:00;95679.78;;;-1.57;78.37
61870;BME280;47810;42.264;23.826;2022-12-20T00:33:26;95667.75;;;-1.52;78.67
61870;BME280;47810;42.264;23.826;2022-12-20T00:35:53;95669.41;;;-1.57;78.51
61870;BME280;47810;42.264;23.826;2022-12-20T00:38:18;95666.97;;;-1.42;78.16
61870;BME280;47810;42.264;23.826;2022-12-20T00:40:44;95672.00;;;-1.57;78.79
61870;BME280;47810;42.264;23.826;2022-12-20T00:43:09;95670.34;;;-1.54;78.83
61870;BME280;47810;42.264;23.826;2022-12-20T00:45:35;95666.97;;;-1.47;78.21
61870;BME280;47810;42.264;23.826;2022-12-20T00:48:00;95664.28;;;-1.54;78.91
61870;BME280;47810;42.264;23.826;2022-12-20T00:50:26;95662.47;;;-1.61;78.50
61870;BME280;47810;42.264;23.826;2022-12-20T00:52:51;95665.81;;;-1.72;78.83
61870;BME280;47810;42.264;23.826;2022-12-20T00:55:17;95677.03;;;-1.73;78.86
61870;BME280;47810;42.264;23.826;2022-12-20T00:57:42;95678.81;;;-1.69;78.98
61870;BME280;47810;42.264;23.826;2022-12-20T01:00:08;95670.94;;;-1.79;78.87
61870;BME280;47810;42.264;23.826;2022-12-20T01:02:34;95674.44;;;-1.73;79.35
61870;BME280;47810;42.264;23.826;2022-12-20T01:04:59;95675.34;;;-1.68;79.28
61870;BME280;47810;42.264;23.826;2022-12-20T01:07:25;95674.56;;;-1.63;78.70
61870;BME280;47810;42.264;23.826;2022-12-20T01:09:51;95675.22;;;-1.80;78.99
61870;BME280;47810;42.264;23.826;2022-12-20T01:12:17;95668.97;;;-1.97;79.49
61870;BME280;47810;42.264;23.826;2022-12-20T01:14:43;95667.44;;;-1.80;79.46
61870;BME280;47810;42.264;23.826;2022-12-20T01:17:09;95663.19;;;-1.75;79.04
61870;BME280;47810;42.264;23.826;2022-12-20T01:19:34;95665.69;;;-1.84;79.13
61870;BME280;47810;42.264;23.826;2022-12-20T01:22:00;95661.28;;;-1.91;79.33
61870;BME280;47810;42.264;23.826;2022-12-20T01:24:26;95662.97;;;-1.93;79.18
61870;BME280;47810;42.264;23.826;2022-12-20T01:26:51;95659.38;;;-2.06;79.44
61870;BME280;47810;42.264;23.826;2022-12-20T01:29:17;95659.41;;;-2.04;79.58
61870;BME280;47810;42.264;23.826;2022-12-20T01:31:42;95651.72;;;-1.98;79.91
61870;BME280;47810;42.264;23.826;2022-12-20T01:34:08;95646.63;;;-1.92;79.71
61870;BME280;47810;42.264;23.826;2022-12-20T01:36:34;95644.91;;;-1.90;79.68
61870;BME280;47810;42.264;23.826;2022-12-20T01:39:06;95635.63;;;-1.71;79.16
61870;BME280;47810;42.264;23.826;2022-12-20T01:41:33;95638.03;;;-1.88;79.36
61870;BME280;47810;42.264;23.826;2022-12-20T01:44:03;95627.56;;;-1.97;79.44
61870;BME280;47810;42.264;23.826;2022-12-20T01:46:30;95625.94;;;-1.89;79.04
61870;BME280;47810;42.264;23.826;2022-12-20T01:51:24;95625.06;;;-1.91;79.47
61870;BME280;47810;42.264;23.826;2022-12-20T01:53:51;95626.63;;;-2.02;79.62
61870;BME280;47810;42.264;23.826;2022-12-20T01:56:18;95621.63;;;-1.87;79.14
61870;BME280;47810;42.264;23.826;2022-12-20T01:58:44;95612.13;;;-1.91;79.05
61870;BME280;47810;42.264;23.826;2022-12-20T02:01:12;95613.81;;;-1.93;79.26
61870;BME280;47810;42.264;23.826;2022-12-20T02:03:37;95617.28;;;-1.91;79.27
61870;BME280;47810;42.264;23.826;2022-12-20T02:06:14;95605.94;;;-2.04;79.16
61870;BME280;47810;42.264;23.826;2022-12-20T02:08:40;95609.28;;;-2.14;78.69
61870;BME280;47810;42.264;23.826;2022-12-20T02:15:57;95606.81;;;-2.03;78.78
61870;BME280;47810;42.264;23.826;2022-12-20T02:18:37;95603.34;;;-2.02;78.78
61870;BME280;47810;42.264;23.826;2022-12-20T02:26:52;95586.94;;;-2.07;78.80
61870;BME280;47810;42.264;23.826;2022-12-20T02:29:24;95585.34;;;-1.93;78.34
61870;BME280;47810;42.264;23.826;2022-12-20T02:31:54;95580.88;;;-2.08;78.29
61870;BME280;47810;42.264;23.826;2022-12-20T02:34:24;95581.75;;;-2.06;78.92
61870;BME280;47810;42.264;23.826;2022-12-20T02:36:50;95579.16;;;-2.07;78.15
61870;BME280;47810;42.264;23.826;2022-12-20T02:39:16;95570.38;;;-2.22;78.82
61870;BME280;47810;42.264;23.826;2022-12-20T02:42:00;95571.38;;;-2.11;78.35
61870;BME280;47810;42.264;23.826;2022-12-20T02:44:28;95580.00;;;-2.12;78.76
61870;BME280;47810;42.264;23.826;2022-12-20T02:47:17;95572.19;;;-2.15;78.69
61870;BME280;47810;42.264;23.826;2022-12-20T02:49:45;95573.16;;;-2.05;78.60
61870;BME280;47810;42.264;23.826;2022-12-20T02:52:11;95567.13;;;-2.05;78.60
61870;BME280;47810;42.264;23.826;2022-12-20T02:54:38;95579.16;;;-2.07;78.99
61870;BME280;47810;42.264;23.826;2022-12-20T02:57:07;95574.84;;;-2.08;78.31
61870;BME280;47810;42.264;23.826;2022-12-20T02:59:36;95570.41;;;-2.19;78.71
61870;BME280;47810;42.264;23.826;2022-12-20T03:02:04;95570.41;;;-2.19;78.12
61870;BME280;47810;42.264;23.826;2022-12-20T03:04:32;95568.56;;;-2.29;78.22
61870;BME280;47810;42.264;23.826;2022-12-20T03:07:00;95573.59;;;-2.43;78.74
61870;BME280;47810;42.264;23.826;2022-12-20T03:09:27;95570.22;;;-2.37;78.88
61870;BME280;47810;42.264;23.826;2022-12-20T03:11:53;95570.09;;;-2.46;79.33
61870;BME280;47810;42.264;23.826;2022-12-20T03:14:18;95570.22;;;-2.37;79.17
61870;BME280;47810;42.264;23.826;2022-12-20T03:16:44;95582.41;;;-2.27;78.98
61870;BME280;47810;42.264;23.826;2022-12-20T03:19:09;95570.31;;;-2.25;79.01
61870;BME280;47810;42.264;23.826;2022-12-20T03:21:36;95572.00;;;-2.30;79.00
61870;BME280;47810;42.264;23.826;2022-12-20T03:24:02;95572.91;;;-2.26;78.67
61870;BME280;47810;42.264;23.826;2022-12-20T03:26:27;95564.22;;;-2.33;78.61
61870;BME280;47810;42.264;23.826;2022-12-20T03:28:53;95569.25;;;-2.45;78.68
61870;BME280;47810;42.264;23.826;2022-12-20T03:31:18;95568.50;;;-2.35;78.88
61870;BME280;47810;42.264;23.826;2022-12-20T03:33:44;95574.56;;;-2.33;78.80
61870;BME280;47810;42.264;23.826;2022-12-20T03:36:09;95580.53;;;-2.40;78.95
61870;BME280;47810;42.264;23.826;2022-12-20T03:38:35;95575.31;;;-2.42;79.24
61870;BME280;47810;42.264;23.826;2022-12-20T03:41:00;95572.16;;;-2.18;78.65
61870;BME280;47810;42.264;23.826;2022-12-20T03:43:26;95572.03;;;-2.27;79.29
61870;BME280;47810;42.264;23.826;2022-12-20T03:45:51;95578.94;;;-2.26;78.83
61870;BME280;47810;42.264;23.826;2022-12-20T03:48:17;95569.34;;;-2.35;79.50
61870;BME280;47810;42.264;23.826;2022-12-20T03:50:43;95574.41;;;-2.47;79.22
61870;BME280;47810;42.264;23.826;2022-12-20T03:53:09;95576.00;;;-2.55;79.19
61870;BME280;47810;42.264;23.826;2022-12-20T03:55:36;95575.19;;;-2.52;79.66
61870;BME280;47810;42.264;23.826;2022-12-20T03:58:01;95568.28;;;-2.53;79.36
61870;BME280;47810;42.264;23.826;2022-12-20T04:00:27;95570.97;;;-2.46;79.53
61870;BME280;47810;42.264;23.826;2022-12-20T04:02:52;95564.97;;;-2.43;79.71
61870;BME280;47810;42.264;23.826;2022-12-20T04:05:18;95571.88;;;-2.42;79.52
61870;BME280;47810;42.264;23.826;2022-12-20T04:07:44;95566.97;;;-2.18;78.46
61870;BME280;47810;42.264;23.826;2022-12-20T04:10:09;95573.88;;;-2.17;77.73
61870;BME280;47810;42.264;23.826;2022-12-20T04:12:35;95571.91;;;-2.39;78.80
61870;BME280;47810;42.264;23.826;2022-12-20T04:15:00;95573.63;;;-2.38;79.04
61870;BME280;47810;42.264;23.826;2022-12-20T04:17:26;95570.25;;;-2.34;79.40
61870;BME280;47810;42.264;23.826;2022-12-20T04:19:52;95575.38;;;-2.37;79.35
61870;BME280;47810;42.264;23.826;2022-12-20T04:22:17;95575.50;;;-2.28;79.56
61870;BME280;47810;42.264;23.826;2022-12-20T04:24:43;95578.88;;;-2.32;79.60
61870;BME280;47810;42.264;23.826;2022-12-20T04:27:08;95586.72;;;-2.27;79.55
61870;BME280;47810;42.264;23.826;2022-12-20T04:29:35;95569.63;;;-2.10;76.89
61870;BME280;47810;42.264;23.826;2022-12-20T04:32:01;95570.50;;;-2.09;75.65
61870;BME280;47810;42.264;23.826;2022-12-20T04:34:27;95574.50;;;-2.38;77.80
61870;BME280;47810;42.264;23.826;2022-12-20T04:36:53;95572.00;;;-2.30;78.29
61870;BME280;47810;42.264;23.826;2022-12-20T04:39:18;95568.75;;;-2.14;76.28
61870;BME280;47810;42.264;23.826;2022-12-20T04:41:44;95565.97;;;-2.29;77.41
61870;BME280;47810;42.264;23.826;2022-12-20T04:44:09;95574.53;;;-2.35;78.17
61870;BME280;47810;42.264;23.826;2022-12-20T04:46:35;95568.59;;;-2.26;77.70
61870;BME280;47810;42.264;23.826;2022-12-20T04:49:00;95571.16;;;-2.30;78.17
61870;BME280;47810;42.264;23.826;2022-12-20T04:51:26;95568.44;;;-2.38;78.75
61870;BME280;47810;42.264;23.826;2022-12-20T04:53:52;95565.97;;;-2.30;78.34
61870;BME280;47810;42.264;23.826;2022-12-20T04:56:27;95565.16;;;-2.25;78.59
61870;BME280;47810;42.264;23.826;2022-12-20T04:58:54;95563.31;;;-2.35;78.70
61870;BME280;47810;42.264;23.826;2022-12-20T05:01:20;95560.66;;;-2.41;78.71
61870;BME280;47810;42.264;23.826;2022-12-20T05:03:47;95552.94;;;-2.38;78.81
61870;BME280;47810;42.264;23.826;2022-12-20T05:06:13;95549.53;;;-2.37;78.53
61870;BME280;47810;42.264;23.826;2022-12-20T05:08:39;95551.25;;;-2.35;78.71
61870;BME280;47810;42.264;23.826;2022-12-20T05:11:05;95556.50;;;-2.30;78.83
61870;BME280;47810;42.264;23.826;2022-12-20T05:13:30;95556.56;;;-2.24;77.90
61870;BME280;47810;42.264;23.826;2022-12-20T05:15:56;95552.25;;;-2.22;78.12
61870;BME280;47810;42.264;23.826;2022-12-20T05:18:22;95550.69;;;-2.06;76.26
61870;BME280;47810;42.264;23.826;2022-12-20T05:20:48;95549.84;;;-2.06;76.66
61870;BME280;47810;42.264;23.826;2022-12-20T05:23:33;95546.28;;;-2.18;77.13
61870;BME280;47810;42.264;23.826;2022-12-20T05:26:17;95554.00;;;-2.19;76.87
61870;BME280;47810;42.264;23.826;2022-12-20T05:28:42;95547.88;;;-2.30;77.37
61870;BME280;47810;42.264;23.826;2022-12-20T05:31:08;95547.00;;;-2.31;77.59
61870;BME280;47810;42.264;23.826;2022-12-20T05:33:34;95549.69;;;-2.19;77.37
61870;BME280;47810;42.264;23.826;2022-12-20T05:36:00;95547.84;;;-2.32;76.80
61870;BME280;47810;42.264;23.826;2022-12-20T05:38:25;95547.75;;;-2.38;77.28
61870;BME280;47810;42.264;23.826;2022-12-20T05:40:51;95552.22;;;-2.26;76.63
61870;BME280;47810;42.264;23.826;2022-12-20T05:43:17;95553.88;;;-2.33;76.98
61870;BME280;47810;42.264;23.826;2022-12-20T05:45:46;95552.28;;;-2.19;76.25
61870;BME280;47810;42.264;23.826;2022-12-20T05:48:13;95556.56;;;-2.24;76.77
61870;BME280;47810;42.264;23.826;2022-12-20T05:50:38;95553.03;;;-2.30;76.70
61870;BME280;47810;42.264;23.826;2022-12-20T05:53:04;95554.81;;;-2.25;76.23
61870;BME280;47810;42.264;23.826;2022-12-20T05:55:29;95557.28;;;-2.36;76.75
61870;BME280;47810;42.264;23.826;2022-12-20T05:57:55;95558.06;;;-2.41;77.52
61870;BME280;47810;42.264;23.826;2022-12-20T06:00:20;95546.09;;;-2.33;76.86
61870;BME280;47810;42.264;23.826;2022-12-20T06:02:46;95553.00;;;-2.32;76.87
61870;BME280;47810;42.264;23.826;2022-12-20T06:05:11;95552.91;;;-2.41;77.11
61870;BME280;47810;42.264;23.826;2022-12-20T06:07:37;95561.56;;;-2.39;76.98
61870;BME280;47810;42.264;23.826;2022-12-20T06:10:03;95553.72;;;-2.45;76.85
61870;BME280;47810;42.264;23.826;2022-12-20T06:12:28;95556.84;;;-2.71;77.20
61870;BME280;47810;42.264;23.826;2022-12-20T06:14:54;95551.09;;;-2.48;76.17
61870;BME280;47810;42.264;23.826;2022-12-20T06:17:19;95556.22;;;-2.51;77.29
61870;BME280;47810;42.264;23.826;2022-12-20T06:19:46;95549.47;;;-2.40;75.35
61870;BME280;47810;42.264;23.826;2022-12-20T06:22:11;95556.41;;;-2.36;75.66
61870;BME280;47810;42.264;23.826;2022-12-20T06:24:37;95565.91;;;-2.35;75.84
61870;BME280;47810;42.264;23.826;2022-12-20T06:27:05;95556.50;;;-2.30;75.42
61870;BME280;47810;42.264;23.826;2022-12-20T06:29:31;95559.13;;;-2.25;74.92
61870;BME280;47810;42.264;23.826;2022-12-20T06:31:57;95565.91;;;-2.37;75.41
61870;BME280;47810;42.264;23.826;2022-12-20T06:34:23;95559.78;;;-2.43;74.75
61870;BME280;47810;42.264;23.826;2022-12-20T06:36:48;95563.22;;;-2.44;75.70
61870;BME280;47810;42.264;23.826;2022-12-20T06:39:14;95568.16;;;-2.63;76.31
61870;BME280;47810;42.264;23.826;2022-12-20T06:41:39;95565.63;;;-2.60;76.59
61870;BME280;47810;42.264;23.826;2022-12-20T06:44:05;95585.63;;;-2.46;76.22
61870;BME280;47810;42.264;23.826;2022-12-20T06:46:31;95566.69;;;-2.42;75.94
61870;BME280;47810;42.264;23.826;2022-12-20T06:48:57;95572.00;;;-2.30;74.30
61870;BME280;47810;42.264;23.826;2022-12-20T06:51:22;95565.03;;;-2.36;74.41
61870;BME280;47810;42.264;23.826;2022-12-20T06:53:48;95559.75;;;-2.46;75.63
61870;BME280;47810;42.264;23.826;2022-12-20T06:56:13;95568.44;;;-2.38;76.01
61870;BME280;47810;42.264;23.826;2022-12-20T06:58:39;95565.91;;;-2.37;75.56
61870;BME280;47810;42.264;23.826;2022-12-20T07:01:05;95565.00;;;-2.40;76.46
61870;BME280;47810;42.264;23.826;2022-12-20T07:03:30;95558.25;;;-2.26;75.12
61870;BME280;47810;42.264;23.826;2022-12-20T07:05:56;95559.97;;;-2.25;74.87
61870;BME280;47810;42.264;23.826;2022-12-20T07:08:22;95558.09;;;-2.38;76.13
61870;BME280;47810;42.264;23.826;2022-12-20T07:10:47;95558.16;;;-2.35;76.25
61870;BME280;47810;42.264;23.826;2022-12-20T07:13:13;95551.47;;;-2.18;75.02
61870;BME280;47810;42.264;23.826;2022-12-20T07:15:38;95553.13;;;-2.23;74.59
61870;BME280;47810;42.264;23.826;2022-12-20T07:18:04;95550.34;;;-2.38;75.59
61870;BME280;47810;42.264;23.826;2022-12-20T07:20:31;95546.00;;;-2.42;75.79
61870;BME280;47810;42.264;23.826;2022-12-20T07:22:56;95537.66;;;-2.17;74.55
61870;BME280;47810;42.264;23.826;2022-12-20T07:25:22;95542.00;;;-2.13;74.56
61870;BME280;47810;42.264;23.826;2022-12-20T07:27:48;95542.72;;;-2.26;74.65
61870;BME280;47810;42.264;23.826;2022-12-20T07:30:15;95541.03;;;-2.24;74.43
61870;BME280;47810;42.264;23.826;2022-12-20T07:32:41;95543.66;;;-2.19;73.78
61870;BME280;47810;42.264;23.826;2022-12-20T07:35:06;95541.16;;;-2.15;73.21
61870;BME280;47810;42.264;23.826;2022-12-20T07:37:32;95541.13;;;-2.18;73.65
61870;BME280;47810;42.264;23.826;2022-12-20T07:39:58;95548.84;;;-2.19;73.07
61870;BME280;47810;42.264;23.826;2022-12-20T07:42:23;95547.94;;;-2.24;74.23
61870;BME280;47810;42.264;23.826;2022-12-20T07:44:49;95544.56;;;-2.16;71.95
61870;BME280;47810;42.264;23.826;2022-12-20T07:47:14;95550.47;;;-2.29;74.49
61870;BME280;47810;42.264;23.826;2022-12-20T07:49:40;95549.66;;;-2.22;75.29
61870;BME280;47810;42.264;23.826;2022-12-20T07:52:05;95551.50;;;-2.13;74.62
61870;BME280;47810;42.264;23.826;2022-12-20T07:54:33;95544.75;;;-1.97;73.38
61870;BME280;47810;42.264;23.826;2022-12-20T07:57:03;95546.47;;;-1.96;73.72
61870;BME280;47810;42.264;23.826;2022-12-20T07:59:33;95550.91;;;-1.84;72.95
61870;BME280;47810;42.264;23.826;2022-12-20T08:02:00;95543.09;;;-1.92;73.56
61870;BME280;47810;42.264;23.826;2022-12-20T08:04:26;95544.78;;;-1.93;73.37
61870;BME280;47810;42.264;23.826;2022-12-20T08:06:56;95536.16;;;-1.93;73.80
61870;BME280;47810;42.264;23.826;2022-12-20T08:09:24;95536.34;;;-1.75;72.70
61870;BME280;47810;42.264;23.826;2022-12-20T08:11:51;95547.47;;;-1.83;72.86
61870;BME280;47810;42.264;23.826;2022-12-20T08:14:17;95541.34;;;-1.93;73.42
61870;BME280;47810;42.264;23.826;2022-12-20T08:16:43;95537.91;;;-1.92;73.17
61870;BME280;47810;42.264;23.826;2022-12-20T08:19:09;95532.78;;;-1.89;74.04
61870;BME280;47810;42.264;23.826;2022-12-20T08:21:35;95533.78;;;-1.72;73.41
61870;BME280;47810;42.264;23.826;2022-12-20T08:24:01;95518.34;;;-1.59;72.92
61870;BME280;47810;42.264;23.826;2022-12-20T08:26:26;95520.00;;;-1.69;73.53
61870;BME280;47810;42.264;23.826;2022-12-20T08:28:53;95521.81;;;-1.57;72.98
61870;BME280;47810;42.264;23.826;2022-12-20T08:31:18;95514.09;;;-1.51;71.71
61870;BME280;47810;42.264;23.826;2022-12-20T08:33:44;95515.84;;;-1.50;72.53
61870;BME280;47810;42.264;23.826;2022-12-20T08:36:10;95514.91;;;-1.55;73.04
61870;BME280;47810;42.264;23.826;2022-12-20T08:38:36;95511.31;;;-1.74;73.07
61870;BME280;47810;42.264;23.826;2022-12-20T08:41:05;95518.25;;;-1.70;73.04
61870;BME280;47810;42.264;23.826;2022-12-20T08:43:31;95510.47;;;-1.72;73.00
61870;BME280;47810;42.264;23.826;2022-12-20T08:45:57;95506.09;;;-1.77;73.73
61870;BME280;47810;42.264;23.826;2022-12-20T08:48:23;95508.78;;;-1.68;73.32
61870;BME280;47810;42.264;23.826;2022-12-20T08:50:56;95513.09;;;-1.69;72.67
61870;BME280;47810;42.264;23.826;2022-12-20T08:53:21;95504.41;;;-1.75;72.94
61870;BME280;47810;42.264;23.826;2022-12-20T08:55:47;95503.53;;;-1.76;72.54
61870;BME280;47810;42.264;23.826;2022-12-20T08:58:13;95505.28;;;-1.72;72.63
61870;BME280;47810;42.264;23.826;2022-12-20T09:00:40;95495.66;;;-1.88;73.47
61870;BME280;47810;42.264;23.826;2022-12-20T09:03:05;95492.41;;;-1.64;74.06
61870;BME280;47810;42.264;23.826;2022-12-20T09:05:32;95488.06;;;-1.68;73.78
61870;BME280;47810;42.264;23.826;2022-12-20T09:07:58;95483.75;;;-1.69;73.33
61870;BME280;47810;42.264;23.826;2022-12-20T09:10:23;95487.16;;;-1.70;73.53
61870;BME280;47810;42.264;23.826;2022-12-20T09:12:49;95476.06;;;-1.55;73.30
61870;BME280;47810;42.264;23.826;2022-12-20T09:15:14;95474.41;;;-1.49;72.73
61870;BME280;47810;42.264;23.826;2022-12-20T09:17:40;95472.69;;;-1.45;72.76
61870;BME280;47810;42.264;23.826;2022-12-20T09:20:06;95471.81;;;-1.49;73.30
61870;BME280;47810;42.264;23.826;2022-12-20T09:22:32;95472.72;;;-1.39;73.17
61870;BME280;47810;42.264;23.826;2022-12-20T09:24:57;95464.91;;;-1.45;72.75
61870;BME280;47810;42.264;23.826;2022-12-20T09:27:23;95469.38;;;-1.23;72.48
61870;BME280;47810;42.264;23.826;2022-12-20T09:29:48;95471.16;;;-1.12;71.82
61870;BME280;47810;42.264;23.826;2022-12-20T09:32:14;95460.09;;;-0.82;72.41
61870;BME280;47810;42.264;23.826;2022-12-20T09:34:39;95454.97;;;-0.59;71.76
61870;BME280;47810;42.264;23.826;2022-12-20T09:37:05;95462.84;;;-0.33;70.16
61870;BME280;47810;42.264;23.826;2022-12-20T09:39:31;95454.22;;;-0.18;69.70
61870;BME280;47810;42.264;23.826;2022-12-20T09:41:56;95459.41;;;-0.18;69.54
61870;BME280;47810;42.264;23.826;2022-12-20T09:46:54;95442.94;;;0.81;67.90
61870;BME280;47810;42.264;23.826;2022-12-20T09:49:25;95439.41;;;1.03;65.78
61870;BME280;47810;42.264;23.826;2022-12-20T09:54:49;95419.25;;;1.54;62.85
61870;BME280;47810;42.264;23.826;2022-12-20T09:59:45;95416.72;;;1.39;61.17
61870;BME280;47810;42.264;23.826;2022-12-20T10:02:11;95404.59;;;1.33;60.31
61870;BME280;47810;42.264;23.826;2022-12-20T10:04:37;95402.88;;;1.31;60.85
61870;BME280;47810;42.264;23.826;2022-12-20T10:12:02;95386.69;;;3.01;61.46
61870;BME280;47810;42.264;23.826;2022-12-20T10:24:32;95362.41;;;4.20;56.35
61870;BME280;47810;42.264;23.826;2022-12-20T10:27:06;95350.03;;;4.30;54.76
61870;BME280;47810;42.264;23.826;2022-12-20T10:29:34;95349.31;;;4.71;54.51
61870;BME280;47810;42.264;23.826;2022-12-20T10:32:00;95344.81;;;4.79;53.14
61870;BME280;47810;42.264;23.826;2022-12-20T10:34:26;95340.53;;;4.75;51.70
61870;BME280;47810;42.264;23.826;2022-12-20T10:39:40;95327.78;;;5.42;49.03
61870;BME280;47810;42.264;23.826;2022-12-20T10:42:19;95322.13;;;5.23;51.28
61870;BME280;47810;42.264;23.826;2022-12-20T10:44:46;95314.03;;;5.34;51.46
61870;BME280;47810;42.264;23.826;2022-12-20T10:47:21;95310.81;;;5.60;49.10
61870;BME280;47810;42.264;23.826;2022-12-20T10:49:49;95308.28;;;5.57;51.50
61870;BME280;47810;42.264;23.826;2022-12-20T10:52:14;95298.31;;;5.34;51.05
61870;BME280;47810;42.264;23.826;2022-12-20T10:54:42;95293.94;;;5.34;49.79
61870;BME280;47810;42.264;23.826;2022-12-20T10:59:45;95282.22;;;5.51;49.20
61870;BME280;47810;42.264;23.826;2022-12-20T11:02:29;95282.34;;;5.45;47.70
61870;BME280;47810;42.264;23.826;2022-12-20T11:05:17;95274.88;;;5.26;47.58
61870;BME280;47810;42.264;23.826;2022-12-20T11:08:06;95264.22;;;5.35;49.47
61870;BME280;47810;42.264;23.826;2022-12-20T11:10:31;95258.78;;;5.45;47.34
61870;BME280;47810;42.264;23.826;2022-12-20T11:13:00;95262.38;;;5.00;48.86
61870;BME280;47810;42.264;23.826;2022-12-20T11:18:00;95261.72;;;5.31;50.13
61870;BME280;47810;42.264;23.826;2022-12-20T11:35:54;95238.09;;;6.07;48.04
61870;BME280;47810;42.264;23.826;2022-12-20T11:43:26;95221.88;;;5.90;47.67
61870;BME280;47810;42.264;23.826;2022-12-20T11:54:07;95204.38;;;5.92;43.53
61870;BME280;47810;42.264;23.826;2022-12-20T12:02:08;95195.97;;;6.13;43.20
61870;BME280;47810;42.264;23.826;2022-12-20T12:04:30;95194.66;;;6.61;41.19
61870;BME280;47810;42.264;23.826;2022-12-20T12:07:00;95191.88;;;6.36;44.85
61870;BME280;47810;42.264;23.826;2022-12-20T12:12:27;95189.88;;;6.75;41.93
61870;BME280;47810;42.264;23.826;2022-12-20T12:15:02;95191.81;;;6.98;41.87
61870;BME280;47810;42.264;23.826;2022-12-20T12:17:45;95190.13;;;6.97;42.65
61870;BME280;47810;42.264;23.826;2022-12-20T12:22:40;95195.44;;;6.94;42.09
61870;BME280;47810;42.264;23.826;2022-12-20T12:25:08;95181.50;;;6.92;43.34
61870;BME280;47810;42.264;23.826;2022-12-20T12:27:38;95174.31;;;7.27;41.83
61870;BME280;47810;42.264;23.826;2022-12-20T12:30:04;95174.97;;;7.05;44.20
61870;BME280;47810;42.264;23.826;2022-12-20T12:32:37;95173.88;;;7.12;43.20
61870;BME280;47810;42.264;23.826;2022-12-20T12:35:10;95172.53;;;6.69;45.67
61870;BME280;47810;42.264;23.826;2022-12-20T12:43:12;95172.53;;;7.55;39.05
61870;BME280;47810;42.264;23.826;2022-12-20T12:48:22;95176.66;;;7.08;39.80
61870;BME280;47810;42.264;23.826;2022-12-20T12:50:49;95174.25;;;7.00;42.97
61870;BME280;47810;42.264;23.826;2022-12-20T12:53:35;95165.53;;;6.70;42.50
61870;BME280;47810;42.264;23.826;2022-12-20T12:59:07;95166.84;;;6.55;42.01
61870;BME280;47810;42.264;23.826;2022-12-20T13:06:52;95166.84;;;6.55;40.91
61870;BME280;47810;42.264;23.826;2022-12-20T13:11:45;95173.34;;;6.09;42.75
61870;BME280;47810;42.264;23.826;2022-12-20T13:16:46;95172.66;;;5.68;42.99
61870;BME280;47810;42.264;23.826;2022-12-20T13:21:44;95170.91;;;5.67;41.02
61870;BME280;47810;42.264;23.826;2022-12-20T13:26:57;95170.41;;;5.17;44.00
61870;BME280;47810;42.264;23.826;2022-12-20T13:29:26;95171.75;;;5.33;41.37
61870;BME280;47810;42.264;23.826;2022-12-20T13:31:52;95169.00;;;5.01;43.21
61870;BME280;47810;42.264;23.826;2022-12-20T13:34:37;95165.31;;;4.71;47.53
61870;BME280;47810;42.264;23.826;2022-12-20T13:37:23;95168.44;;;4.48;48.87
61870;BME280;47810;42.264;23.826;2022-12-20T13:39:49;95169.09;;;4.14;50.26
61870;BME280;47810;42.264;23.826;2022-12-20T13:42:31;95178.59;;;2.59;54.01
61870;BME280;47810;42.264;23.826;2022-12-20T13:45:00;95183.03;;;1.78;57.52
61870;BME280;47810;42.264;23.826;2022-12-20T13:47:31;95180.25;;;0.98;59.87
61870;BME280;47810;42.264;23.826;2022-12-20T13:49:59;95186.88;;;1.37;59.77
61870;BME280;47810;42.264;23.826;2022-12-20T13:52:27;95185.88;;;1.52;59.95
61870;BME280;47810;42.264;23.826;2022-12-20T13:54:54;95186.16;;;1.20;60.30
61870;BME280;47810;42.264;23.826;2022-12-20T13:57:38;95193.09;;;1.19;60.86
61870;BME280;47810;42.264;23.826;2022-12-20T14:00:06;95189.44;;;1.43;60.55
61870;BME280;47810;42.264;23.826;2022-12-20T14:02:39;95184.09;;;1.57;59.07
61870;BME280;47810;42.264;23.826;2022-12-20T14:05:11;95179.69;;;1.63;58.59
61870;BME280;47810;42.264;23.826;2022-12-20T14:07:37;95176.84;;;1.88;58.38
61870;BME280;47810;42.264;23.826;2022-12-20T14:10:11;95175.94;;;1.91;58.09
61870;BME280;47810;42.264;23.826;2022-12-20T14:12:41;95172.66;;;1.75;59.05
61870;BME280;47810;42.264;23.826;2022-12-20T14:17:46;95167.97;;;1.16;61.75
61870;BME280;47810;42.264;23.826;2022-12-20T14:20:13;95178.56;;;0.92;63.05
61870;BME280;47810;42.264;23.826;2022-12-20T14:25:07;95179.59;;;0.63;63.89
61870;BME280;47810;42.264;23.826;2022-12-20T14:27:34;95178.81;;;0.52;63.97
61870;BME280;47810;42.264;23.826;2022-12-20T14:30:01;95182.47;;;0.11;65.09
61870;BME280;47810;42.264;23.826;2022-12-20T14:32:27;95183.25;;;0.26;65.71
61870;BME280;47810;42.264;23.826;2022-12-20T14:34:53;95178.13;;;0.16;65.81
61870;BME280;47810;42.264;23.826;2022-12-20T14:39:57;95173.69;;;0.37;64.88
61870;BME280;47810;42.264;23.826;2022-12-20T14:42:25;95158.28;;;0.00;66.35
61870;BME280;47810;42.264;23.826;2022-12-20T14:45:00;95156.47;;;0.20;66.33
61870;BME280;47810;42.264;23.826;2022-12-20T14:47:26;95157.31;;;0.22;66.53
61870;BME280;47810;42.264;23.826;2022-12-20T14:50:35;95152.03;;;0.38;66.24
61870;BME280;47810;42.264;23.826;2022-12-20T14:52:42;95150.19;;;0.60;65.61